sensor_id;sensor_type;location;lat;lon;timestamp;P1;durP1;ratioP1;P2;durP2;ratioP2
56075;SDS011;41951;49.022;12.066;2023-04-03T00:00:07;4.53;;;2.35;;
56075;SDS011;41951;49.022;12.066;2023-04-03T00:02:33;3.88;;;2.25;;
56075;SDS011;41951;49.022;12.066;2023-04-03T00:04:59;4.13;;;2.20;;
56075;SDS011;41951;49.022;12.066;2023-04-03T00:07:24;4.88;;;2.30;;
56075;SDS011;41951;49.022;12.066;2023-04-03T00:09:50;3.78;;;2.25;;
56075;SDS011;41951;49.022;12.066;2023-04-03T00:12:16;5.50;;;2.55;;
56075;SDS011;41951;49.022;12.066;2023-04-03T00:14:41;4.35;;;2.25;;
56075;SDS011;41951;49.022;12.066;2023-04-03T00:17:07;5.00;;;2.22;;
56075;SDS011;41951;49.022;12.066;2023-04-03T00:19:32;4.03;;;2.50;;
56075;SDS011;41951;49.022;12.066;2023-04-03T00:21:58;4.50;;;2.17;;
56075;SDS011;41951;49.022;12.066;2023-04-03T00:24:24;4.43;;;2.38;;
56075;SDS011;41951;49.022;12.066;2023-04-03T00:26:50;4.22;;;2.30;;
56075;SDS011;41951;49.022;12.066;2023-04-03T00:29:15;4.25;;;2.30;;
56075;SDS011;41951;49.022;12.066;2023-04-03T00:31:41;5.07;;;2.53;;
56075;SDS011;41951;49.022;12.066;2023-04-03T00:34:07;4.60;;;2.28;;
56075;SDS011;41951;49.022;12.066;2023-04-03T00:36:32;4.45;;;2.63;;
56075;SDS011;41951;49.022;12.066;2023-04-03T00:38:58;4.65;;;2.22;;
56075;SDS011;41951;49.022;12.066;2023-04-03T00:41:23;4.28;;;2.42;;
56075;SDS011;41951;49.022;12.066;2023-04-03T00:43:50;3.90;;;2.22;;
56075;SDS011;41951;49.022;12.066;2023-04-03T00:46:16;3.72;;;2.38;;
56075;SDS011;41951;49.022;12.066;2023-04-03T00:48:45;4.30;;;2.35;;
56075;SDS011;41951;49.022;12.066;2023-04-03T00:51:24;3.95;;;2.25;;
56075;SDS011;41951;49.022;12.066;2023-04-03T00:54:01;5.35;;;2.35;;
56075;SDS011;41951;49.022;12.066;2023-04-03T00:56:30;6.63;;;2.50;;
56075;SDS011;41951;49.022;12.066;2023-04-03T00:58:58;3.92;;;2.30;;
56075;SDS011;41951;49.022;12.066;2023-04-03T01:01:29;4.55;;;2.60;;
56075;SDS011;41951;49.022;12.066;2023-04-03T01:03:55;4.22;;;2.20;;
56075;SDS011;41951;49.022;12.066;2023-04-03T01:06:23;4.10;;;2.20;;
56075;SDS011;41951;49.022;12.066;2023-04-03T01:08:57;4.35;;;2.22;;
56075;SDS011;41951;49.022;12.066;2023-04-03T01:11:24;4.18;;;2.33;;
56075;SDS011;41951;49.022;12.066;2023-04-03T01:13:51;5.03;;;2.40;;
56075;SDS011;41951;49.022;12.066;2023-04-03T01:16:18;5.20;;;3.22;;
56075;SDS011;41951;49.022;12.066;2023-04-03T01:18:43;4.38;;;2.33;;
56075;SDS011;41951;49.022;12.066;2023-04-03T01:23:53;4.63;;;2.30;;
56075;SDS011;41951;49.022;12.066;2023-04-03T01:26:21;3.30;;;2.08;;
56075;SDS011;41951;49.022;12.066;2023-04-03T01:28:46;4.22;;;2.40;;
56075;SDS011;41951;49.022;12.066;2023-04-03T01:31:15;4.07;;;2.10;;
56075;SDS011;41951;49.022;12.066;2023-04-03T01:33:52;4.30;;;2.40;;
56075;SDS011;41951;49.022;12.066;2023-04-03T01:36:19;5.38;;;2.20;;
56075;SDS011;41951;49.022;12.066;2023-04-03T01:38:47;4.55;;;2.08;;
56075;SDS011;41951;49.022;12.066;2023-04-03T01:41:13;4.13;;;2.20;;
56075;SDS011;41951;49.022;12.066;2023-04-03T01:43:40;4.53;;;2.55;;
56075;SDS011;41951;49.022;12.066;2023-04-03T01:46:06;3.78;;;2.10;;
56075;SDS011;41951;49.022;12.066;2023-04-03T01:48:32;4.78;;;2.28;;
56075;SDS011;41951;49.022;12.066;2023-04-03T01:50:58;3.67;;;2.17;;
56075;SDS011;41951;49.022;12.066;2023-04-03T01:53:24;5.15;;;2.70;;
56075;SDS011;41951;49.022;12.066;2023-04-03T01:55:49;14.02;;;4.90;;
56075;SDS011;41951;49.022;12.066;2023-04-03T01:58:15;18.38;;;6.82;;
56075;SDS011;41951;49.022;12.066;2023-04-03T02:00:41;13.43;;;6.13;;
56075;SDS011;41951;49.022;12.066;2023-04-03T02:03:07;6.63;;;3.42;;
56075;SDS011;41951;49.022;12.066;2023-04-03T02:05:33;5.35;;;2.53;;
56075;SDS011;41951;49.022;12.066;2023-04-03T02:07:58;4.95;;;2.22;;
56075;SDS011;41951;49.022;12.066;2023-04-03T02:10:25;4.70;;;2.35;;
56075;SDS011;41951;49.022;12.066;2023-04-03T02:12:50;4.55;;;2.40;;
56075;SDS011;41951;49.022;12.066;2023-04-03T02:15:16;4.13;;;2.80;;
56075;SDS011;41951;49.022;12.066;2023-04-03T02:17:42;5.40;;;2.75;;
56075;SDS011;41951;49.022;12.066;2023-04-03T02:20:09;3.80;;;2.38;;
56075;SDS011;41951;49.022;12.066;2023-04-03T02:22:34;4.40;;;2.40;;
56075;SDS011;41951;49.022;12.066;2023-04-03T02:25:00;3.75;;;2.38;;
56075;SDS011;41951;49.022;12.066;2023-04-03T02:27:26;4.50;;;2.50;;
56075;SDS011;41951;49.022;12.066;2023-04-03T02:29:52;4.00;;;2.28;;
56075;SDS011;41951;49.022;12.066;2023-04-03T02:32:17;4.95;;;2.63;;
56075;SDS011;41951;49.022;12.066;2023-04-03T02:34:43;4.45;;;2.53;;
56075;SDS011;41951;49.022;12.066;2023-04-03T02:37:09;6.35;;;2.40;;
56075;SDS011;41951;49.022;12.066;2023-04-03T02:39:34;3.72;;;2.30;;
56075;SDS011;41951;49.022;12.066;2023-04-03T02:42:00;3.90;;;2.40;;
56075;SDS011;41951;49.022;12.066;2023-04-03T02:44:26;6.05;;;3.50;;
56075;SDS011;41951;49.022;12.066;2023-04-03T02:46:51;4.82;;;2.72;;
56075;SDS011;41951;49.022;12.066;2023-04-03T02:49:17;6.00;;;2.75;;
56075;SDS011;41951;49.022;12.066;2023-04-03T02:51:43;4.60;;;2.85;;
56075;SDS011;41951;49.022;12.066;2023-04-03T02:54:08;6.72;;;3.45;;
56075;SDS011;41951;49.022;12.066;2023-04-03T02:56:35;4.07;;;2.38;;
56075;SDS011;41951;49.022;12.066;2023-04-03T02:59:00;6.43;;;2.88;;
56075;SDS011;41951;49.022;12.066;2023-04-03T03:01:26;5.57;;;2.88;;
56075;SDS011;41951;49.022;12.066;2023-04-03T03:03:56;7.53;;;2.75;;
56075;SDS011;41951;49.022;12.066;2023-04-03T03:06:22;6.40;;;3.10;;
56075;SDS011;41951;49.022;12.066;2023-04-03T03:08:47;4.32;;;2.60;;
56075;SDS011;41951;49.022;12.066;2023-04-03T03:11:13;4.90;;;2.53;;
56075;SDS011;41951;49.022;12.066;2023-04-03T03:13:39;4.07;;;2.38;;
56075;SDS011;41951;49.022;12.066;2023-04-03T03:16:04;6.13;;;2.97;;
56075;SDS011;41951;49.022;12.066;2023-04-03T03:18:30;5.95;;;2.45;;
56075;SDS011;41951;49.022;12.066;2023-04-03T03:20:57;4.00;;;2.30;;
56075;SDS011;41951;49.022;12.066;2023-04-03T03:23:25;4.32;;;2.50;;
56075;SDS011;41951;49.022;12.066;2023-04-03T03:25:58;4.93;;;2.55;;
56075;SDS011;41951;49.022;12.066;2023-04-03T03:28:25;4.47;;;2.53;;
56075;SDS011;41951;49.022;12.066;2023-04-03T03:30:51;3.63;;;2.38;;
56075;SDS011;41951;49.022;12.066;2023-04-03T03:33:16;3.67;;;2.30;;
56075;SDS011;41951;49.022;12.066;2023-04-03T03:35:43;5.63;;;2.67;;
56075;SDS011;41951;49.022;12.066;2023-04-03T03:38:09;3.60;;;2.30;;
56075;SDS011;41951;49.022;12.066;2023-04-03T03:40:35;4.75;;;2.30;;
56075;SDS011;41951;49.022;12.066;2023-04-03T03:43:01;3.80;;;2.33;;
56075;SDS011;41951;49.022;12.066;2023-04-03T03:45:26;4.68;;;2.60;;
56075;SDS011;41951;49.022;12.066;2023-04-03T03:47:52;4.30;;;2.40;;
56075;SDS011;41951;49.022;12.066;2023-04-03T03:50:18;4.25;;;2.63;;
56075;SDS011;41951;49.022;12.066;2023-04-03T03:52:44;3.75;;;2.50;;
56075;SDS011;41951;49.022;12.066;2023-04-03T03:55:09;5.15;;;2.40;;
56075;SDS011;41951;49.022;12.066;2023-04-03T03:57:35;5.53;;;2.50;;
56075;SDS011;41951;49.022;12.066;2023-04-03T04:00:01;4.15;;;2.42;;
56075;SDS011;41951;49.022;12.066;2023-04-03T04:02:28;7.47;;;2.95;;
56075;SDS011;41951;49.022;12.066;2023-04-03T04:04:53;3.65;;;2.45;;
56075;SDS011;41951;49.022;12.066;2023-04-03T04:07:19;3.65;;;2.42;;
56075;SDS011;41951;49.022;12.066;2023-04-03T04:09:45;4.25;;;2.53;;
56075;SDS011;41951;49.022;12.066;2023-04-03T04:12:11;4.70;;;2.55;;
56075;SDS011;41951;49.022;12.066;2023-04-03T04:14:36;5.97;;;3.22;;
56075;SDS011;41951;49.022;12.066;2023-04-03T04:17:02;4.65;;;2.45;;
56075;SDS011;41951;49.022;12.066;2023-04-03T04:19:28;7.93;;;4.00;;
56075;SDS011;41951;49.022;12.066;2023-04-03T04:21:53;4.95;;;2.67;;
56075;SDS011;41951;49.022;12.066;2023-04-03T04:24:19;3.85;;;2.17;;
56075;SDS011;41951;49.022;12.066;2023-04-03T04:26:45;4.75;;;2.08;;
56075;SDS011;41951;49.022;12.066;2023-04-03T04:29:10;5.70;;;2.22;;
56075;SDS011;41951;49.022;12.066;2023-04-03T04:31:36;4.63;;;2.47;;
56075;SDS011;41951;49.022;12.066;2023-04-03T04:34:02;3.97;;;2.65;;
56075;SDS011;41951;49.022;12.066;2023-04-03T04:36:27;4.75;;;2.50;;
56075;SDS011;41951;49.022;12.066;2023-04-03T04:38:53;5.05;;;2.60;;
56075;SDS011;41951;49.022;12.066;2023-04-03T04:41:19;4.50;;;2.67;;
56075;SDS011;41951;49.022;12.066;2023-04-03T04:43:47;4.15;;;2.33;;
56075;SDS011;41951;49.022;12.066;2023-04-03T04:46:13;5.82;;;2.97;;
56075;SDS011;41951;49.022;12.066;2023-04-03T04:48:38;4.22;;;2.63;;
56075;SDS011;41951;49.022;12.066;2023-04-03T04:51:05;8.10;;;2.65;;
56075;SDS011;41951;49.022;12.066;2023-04-03T04:53:31;4.85;;;2.70;;
56075;SDS011;41951;49.022;12.066;2023-04-03T04:55:57;3.30;;;2.28;;
56075;SDS011;41951;49.022;12.066;2023-04-03T04:58:22;4.18;;;2.13;;
56075;SDS011;41951;49.022;12.066;2023-04-03T05:00:48;5.50;;;2.70;;
56075;SDS011;41951;49.022;12.066;2023-04-03T05:03:13;3.88;;;2.30;;
56075;SDS011;41951;49.022;12.066;2023-04-03T05:05:39;4.20;;;2.50;;
56075;SDS011;41951;49.022;12.066;2023-04-03T05:08:05;5.15;;;2.60;;
56075;SDS011;41951;49.022;12.066;2023-04-03T05:10:31;5.53;;;2.80;;
56075;SDS011;41951;49.022;12.066;2023-04-03T05:12:57;4.82;;;2.85;;
56075;SDS011;41951;49.022;12.066;2023-04-03T05:15:23;4.78;;;2.70;;
56075;SDS011;41951;49.022;12.066;2023-04-03T05:17:48;4.43;;;2.70;;
56075;SDS011;41951;49.022;12.066;2023-04-03T05:20:15;7.70;;;2.40;;
56075;SDS011;41951;49.022;12.066;2023-04-03T05:22:41;5.25;;;2.78;;
56075;SDS011;41951;49.022;12.066;2023-04-03T05:25:06;4.03;;;2.30;;
56075;SDS011;41951;49.022;12.066;2023-04-03T05:27:32;3.92;;;2.47;;
56075;SDS011;41951;49.022;12.066;2023-04-03T05:29:58;6.88;;;3.38;;
56075;SDS011;41951;49.022;12.066;2023-04-03T05:32:24;6.05;;;2.75;;
56075;SDS011;41951;49.022;12.066;2023-04-03T05:34:52;3.60;;;2.30;;
56075;SDS011;41951;49.022;12.066;2023-04-03T05:37:18;6.10;;;2.65;;
56075;SDS011;41951;49.022;12.066;2023-04-03T05:39:44;6.00;;;2.50;;
56075;SDS011;41951;49.022;12.066;2023-04-03T05:42:10;5.80;;;3.03;;
56075;SDS011;41951;49.022;12.066;2023-04-03T05:44:36;4.43;;;2.60;;
56075;SDS011;41951;49.022;12.066;2023-04-03T05:47:02;4.95;;;3.13;;
56075;SDS011;41951;49.022;12.066;2023-04-03T05:49:28;4.95;;;3.00;;
56075;SDS011;41951;49.022;12.066;2023-04-03T05:51:54;5.85;;;3.05;;
56075;SDS011;41951;49.022;12.066;2023-04-03T05:54:24;5.82;;;2.72;;
56075;SDS011;41951;49.022;12.066;2023-04-03T05:56:51;6.18;;;2.75;;
56075;SDS011;41951;49.022;12.066;2023-04-03T05:59:17;5.38;;;2.67;;
56075;SDS011;41951;49.022;12.066;2023-04-03T06:01:44;5.55;;;2.75;;
56075;SDS011;41951;49.022;12.066;2023-04-03T06:04:09;6.38;;;3.25;;
56075;SDS011;41951;49.022;12.066;2023-04-03T06:06:45;5.47;;;3.03;;
56075;SDS011;41951;49.022;12.066;2023-04-03T06:09:14;5.95;;;3.10;;
56075;SDS011;41951;49.022;12.066;2023-04-03T06:11:40;5.25;;;3.25;;
56075;SDS011;41951;49.022;12.066;2023-04-03T06:14:06;4.55;;;2.95;;
56075;SDS011;41951;49.022;12.066;2023-04-03T06:16:32;4.82;;;2.90;;
56075;SDS011;41951;49.022;12.066;2023-04-03T06:18:59;5.90;;;3.47;;
56075;SDS011;41951;49.022;12.066;2023-04-03T06:21:24;5.55;;;3.10;;
56075;SDS011;41951;49.022;12.066;2023-04-03T06:23:50;7.20;;;3.75;;
56075;SDS011;41951;49.022;12.066;2023-04-03T06:26:16;8.45;;;2.97;;
56075;SDS011;41951;49.022;12.066;2023-04-03T06:28:42;5.65;;;3.35;;
56075;SDS011;41951;49.022;12.066;2023-04-03T06:31:07;6.13;;;2.83;;
56075;SDS011;41951;49.022;12.066;2023-04-03T06:33:33;7.18;;;3.40;;
56075;SDS011;41951;49.022;12.066;2023-04-03T06:35:59;6.05;;;3.53;;
56075;SDS011;41951;49.022;12.066;2023-04-03T06:38:28;6.65;;;3.08;;
56075;SDS011;41951;49.022;12.066;2023-04-03T06:40:53;5.63;;;3.03;;
56075;SDS011;41951;49.022;12.066;2023-04-03T06:43:19;6.60;;;3.22;;
56075;SDS011;41951;49.022;12.066;2023-04-03T06:45:45;6.20;;;3.17;;
56075;SDS011;41951;49.022;12.066;2023-04-03T06:48:11;6.18;;;3.13;;
56075;SDS011;41951;49.022;12.066;2023-04-03T06:50:37;7.00;;;3.10;;
56075;SDS011;41951;49.022;12.066;2023-04-03T06:53:03;7.90;;;2.92;;
56075;SDS011;41951;49.022;12.066;2023-04-03T06:55:29;9.60;;;3.83;;
56075;SDS011;41951;49.022;12.066;2023-04-03T06:57:55;6.22;;;3.30;;
56075;SDS011;41951;49.022;12.066;2023-04-03T07:00:21;8.82;;;3.55;;
56075;SDS011;41951;49.022;12.066;2023-04-03T07:02:46;6.95;;;3.30;;
56075;SDS011;41951;49.022;12.066;2023-04-03T07:05:12;10.25;;;3.45;;
56075;SDS011;41951;49.022;12.066;2023-04-03T07:07:38;5.93;;;3.08;;
56075;SDS011;41951;49.022;12.066;2023-04-03T07:10:05;5.85;;;3.25;;
56075;SDS011;41951;49.022;12.066;2023-04-03T07:12:31;6.25;;;3.35;;
56075;SDS011;41951;49.022;12.066;2023-04-03T07:14:57;7.25;;;3.08;;
56075;SDS011;41951;49.022;12.066;2023-04-03T07:17:23;4.68;;;2.83;;
56075;SDS011;41951;49.022;12.066;2023-04-03T07:19:48;6.82;;;3.17;;
56075;SDS011;41951;49.022;12.066;2023-04-03T07:22:14;6.57;;;2.88;;
56075;SDS011;41951;49.022;12.066;2023-04-03T07:24:39;9.55;;;3.35;;
56075;SDS011;41951;49.022;12.066;2023-04-03T07:27:05;5.78;;;2.80;;
56075;SDS011;41951;49.022;12.066;2023-04-03T07:29:33;6.10;;;3.13;;
56075;SDS011;41951;49.022;12.066;2023-04-03T07:31:59;5.72;;;3.20;;
56075;SDS011;41951;49.022;12.066;2023-04-03T07:34:24;5.35;;;2.85;;
56075;SDS011;41951;49.022;12.066;2023-04-03T07:36:50;4.68;;;2.60;;
56075;SDS011;41951;49.022;12.066;2023-04-03T07:39:16;5.60;;;2.78;;
56075;SDS011;41951;49.022;12.066;2023-04-03T07:41:41;6.00;;;2.88;;
56075;SDS011;41951;49.022;12.066;2023-04-03T07:44:07;7.65;;;2.75;;
56075;SDS011;41951;49.022;12.066;2023-04-03T07:46:34;5.00;;;2.65;;
56075;SDS011;41951;49.022;12.066;2023-04-03T07:49:00;5.50;;;2.25;;
56075;SDS011;41951;49.022;12.066;2023-04-03T07:51:26;5.38;;;2.47;;
56075;SDS011;41951;49.022;12.066;2023-04-03T07:53:53;7.40;;;2.70;;
56075;SDS011;41951;49.022;12.066;2023-04-03T07:56:19;5.53;;;2.42;;
56075;SDS011;41951;49.022;12.066;2023-04-03T07:58:45;5.07;;;2.72;;
56075;SDS011;41951;49.022;12.066;2023-04-03T08:01:11;8.25;;;2.45;;
56075;SDS011;41951;49.022;12.066;2023-04-03T08:03:38;4.38;;;2.45;;
56075;SDS011;41951;49.022;12.066;2023-04-03T08:06:04;5.65;;;2.45;;
56075;SDS011;41951;49.022;12.066;2023-04-03T08:08:32;5.22;;;2.65;;
56075;SDS011;41951;49.022;12.066;2023-04-03T08:10:58;4.30;;;2.50;;
56075;SDS011;41951;49.022;12.066;2023-04-03T08:13:25;6.95;;;2.40;;
56075;SDS011;41951;49.022;12.066;2023-04-03T08:15:51;3.95;;;2.13;;
56075;SDS011;41951;49.022;12.066;2023-04-03T08:18:17;7.47;;;3.33;;
56075;SDS011;41951;49.022;12.066;2023-04-03T08:20:46;5.82;;;2.83;;
56075;SDS011;41951;49.022;12.066;2023-04-03T08:23:12;5.15;;;2.53;;
56075;SDS011;41951;49.022;12.066;2023-04-03T08:25:39;5.25;;;2.15;;
56075;SDS011;41951;49.022;12.066;2023-04-03T08:28:05;6.80;;;2.40;;
56075;SDS011;41951;49.022;12.066;2023-04-03T08:30:32;5.72;;;2.20;;
56075;SDS011;41951;49.022;12.066;2023-04-03T08:32:59;4.25;;;1.80;;
56075;SDS011;41951;49.022;12.066;2023-04-03T08:35:26;5.22;;;2.45;;
56075;SDS011;41951;49.022;12.066;2023-04-03T08:37:51;5.07;;;1.75;;
56075;SDS011;41951;49.022;12.066;2023-04-03T08:40:17;8.50;;;1.90;;
56075;SDS011;41951;49.022;12.066;2023-04-03T08:42:54;5.07;;;1.80;;
56075;SDS011;41951;49.022;12.066;2023-04-03T08:48:11;9.07;;;1.95;;
56075;SDS011;41951;49.022;12.066;2023-04-03T08:50:45;3.30;;;1.42;;
56075;SDS011;41951;49.022;12.066;2023-04-03T08:53:15;3.90;;;1.67;;
56075;SDS011;41951;49.022;12.066;2023-04-03T08:55:49;4.45;;;1.35;;
56075;SDS011;41951;49.022;12.066;2023-04-03T08:58:16;6.13;;;1.70;;
56075;SDS011;41951;49.022;12.066;2023-04-03T09:00:46;2.83;;;1.50;;
56075;SDS011;41951;49.022;12.066;2023-04-03T09:03:19;4.13;;;1.50;;
56075;SDS011;41951;49.022;12.066;2023-04-03T09:06:06;4.28;;;1.55;;
56075;SDS011;41951;49.022;12.066;2023-04-03T09:08:47;6.32;;;1.50;;
56075;SDS011;41951;49.022;12.066;2023-04-03T09:11:26;3.95;;;1.40;;
56075;SDS011;41951;49.022;12.066;2023-04-03T09:22:46;6.60;;;1.90;;
56075;SDS011;41951;49.022;12.066;2023-04-03T09:27:59;4.55;;;1.20;;
56075;SDS011;41951;49.022;12.066;2023-04-03T09:30:26;5.15;;;2.03;;
56075;SDS011;41951;49.022;12.066;2023-04-03T09:32:53;3.38;;;1.65;;
56075;SDS011;41951;49.022;12.066;2023-04-03T09:43:33;5.15;;;1.55;;
56075;SDS011;41951;49.022;12.066;2023-04-03T09:45:43;6.05;;;2.22;;
56075;SDS011;41951;49.022;12.066;2023-04-03T09:58:49;2.83;;;1.23;;
56075;SDS011;41951;49.022;12.066;2023-04-03T10:01:36;2.55;;;1.20;;
56075;SDS011;41951;49.022;12.066;2023-04-03T10:04:05;2.55;;;1.02;;
56075;SDS011;41951;49.022;12.066;2023-04-03T10:06:33;3.40;;;1.40;;
56075;SDS011;41951;49.022;12.066;2023-04-03T10:09:06;2.88;;;1.30;;
56075;SDS011;41951;49.022;12.066;2023-04-03T10:12:18;6.50;;;1.52;;
56075;SDS011;41951;49.022;12.066;2023-04-03T10:14:40;2.85;;;1.50;;
56075;SDS011;41951;49.022;12.066;2023-04-03T10:17:25;3.75;;;1.30;;
56075;SDS011;41951;49.022;12.066;2023-04-03T10:28:35;3.80;;;1.30;;
56075;SDS011;41951;49.022;12.066;2023-04-03T10:39:08;5.25;;;1.38;;
56075;SDS011;41951;49.022;12.066;2023-04-03T10:47:28;2.80;;;1.10;;
56075;SDS011;41951;49.022;12.066;2023-04-03T10:50:51;3.42;;;1.20;;
56075;SDS011;41951;49.022;12.066;2023-04-03T10:56:15;3.25;;;1.20;;
56075;SDS011;41951;49.022;12.066;2023-04-03T10:58:58;2.83;;;1.35;;
56075;SDS011;41951;49.022;12.066;2023-04-03T11:01:38;3.20;;;1.10;;
56075;SDS011;41951;49.022;12.066;2023-04-03T11:04:07;2.78;;;1.45;;
56075;SDS011;41951;49.022;12.066;2023-04-03T11:06:52;2.30;;;1.30;;
56075;SDS011;41951;49.022;12.066;2023-04-03T11:09:25;3.65;;;1.48;;
56075;SDS011;41951;49.022;12.066;2023-04-03T11:12:10;2.88;;;1.30;;
56075;SDS011;41951;49.022;12.066;2023-04-03T11:14:41;3.30;;;1.20;;
56075;SDS011;41951;49.022;12.066;2023-04-03T11:17:23;17.60;;;1.88;;
56075;SDS011;41951;49.022;12.066;2023-04-03T11:19:59;2.47;;;1.15;;
56075;SDS011;41951;49.022;12.066;2023-04-03T11:22:42;3.00;;;1.40;;
56075;SDS011;41951;49.022;12.066;2023-04-03T11:25:29;5.80;;;1.10;;
56075;SDS011;41951;49.022;12.066;2023-04-03T11:35:59;3.40;;;1.27;;
56075;SDS011;41951;49.022;12.066;2023-04-03T11:38:30;4.15;;;1.50;;
56075;SDS011;41951;49.022;12.066;2023-04-03T11:41:02;2.72;;;1.40;;
56075;SDS011;41951;49.022;12.066;2023-04-03T11:43:30;29.90;;;2.75;;
56075;SDS011;41951;49.022;12.066;2023-04-03T11:46:01;1.70;;;1.20;;
56075;SDS011;41951;49.022;12.066;2023-04-03T11:51:02;9.93;;;1.30;;
56075;SDS011;41951;49.022;12.066;2023-04-03T11:53:53;3.40;;;1.40;;
56075;SDS011;41951;49.022;12.066;2023-04-03T12:01:48;4.35;;;1.60;;
56075;SDS011;41951;49.022;12.066;2023-04-03T12:06:49;5.80;;;1.30;;
56075;SDS011;41951;49.022;12.066;2023-04-03T12:10:00;3.78;;;1.25;;
56075;SDS011;41951;49.022;12.066;2023-04-03T12:15:12;3.53;;;1.27;;
56075;SDS011;41951;49.022;12.066;2023-04-03T12:17:48;4.85;;;1.30;;
56075;SDS011;41951;49.022;12.066;2023-04-03T12:25:50;3.28;;;1.40;;
56075;SDS011;41951;49.022;12.066;2023-04-03T12:28:16;3.88;;;1.27;;
56075;SDS011;41951;49.022;12.066;2023-04-03T12:30:42;3.55;;;1.75;;
56075;SDS011;41951;49.022;12.066;2023-04-03T12:33:20;4.18;;;1.55;;
56075;SDS011;41951;49.022;12.066;2023-04-03T12:36:02;2.60;;;1.30;;
56075;SDS011;41951;49.022;12.066;2023-04-03T12:41:37;4.30;;;1.40;;
56075;SDS011;41951;49.022;12.066;2023-04-03T12:44:19;3.42;;;1.30;;
56075;SDS011;41951;49.022;12.066;2023-04-03T12:47:19;2.67;;;1.20;;
56075;SDS011;41951;49.022;12.066;2023-04-03T12:49:58;2.58;;;1.30;;
56075;SDS011;41951;49.022;12.066;2023-04-03T12:52:39;3.10;;;1.35;;
56075;SDS011;41951;49.022;12.066;2023-04-03T12:55:19;4.50;;;1.60;;
56075;SDS011;41951;49.022;12.066;2023-04-03T12:57:46;3.60;;;1.23;;
56075;SDS011;41951;49.022;12.066;2023-04-03T13:00:18;1.70;;;1.10;;
56075;SDS011;41951;49.022;12.066;2023-04-03T13:02:46;2.17;;;1.15;;
56075;SDS011;41951;49.022;12.066;2023-04-03T13:05:16;4.90;;;1.30;;
56075;SDS011;41951;49.022;12.066;2023-04-03T13:07:44;4.32;;;1.30;;
56075;SDS011;41951;49.022;12.066;2023-04-03T13:10:15;3.75;;;1.35;;
56075;SDS011;41951;49.022;12.066;2023-04-03T13:12:45;14.63;;;2.03;;
56075;SDS011;41951;49.022;12.066;2023-04-03T13:15:20;3.95;;;1.30;;
56075;SDS011;41951;49.022;12.066;2023-04-03T13:17:54;2.47;;;1.10;;
56075;SDS011;41951;49.022;12.066;2023-04-03T13:22:52;3.40;;;1.30;;
56075;SDS011;41951;49.022;12.066;2023-04-03T13:25:19;3.78;;;1.25;;
56075;SDS011;41951;49.022;12.066;2023-04-03T13:27:46;38.55;;;3.53;;
56075;SDS011;41951;49.022;12.066;2023-04-03T13:32:47;4.03;;;1.30;;
56075;SDS011;41951;49.022;12.066;2023-04-03T13:37:58;2.67;;;1.60;;
56075;SDS011;41951;49.022;12.066;2023-04-03T13:40:26;4.57;;;1.00;;
56075;SDS011;41951;49.022;12.066;2023-04-03T13:43:05;4.22;;;1.58;;
56075;SDS011;41951;49.022;12.066;2023-04-03T13:45:42;2.63;;;1.27;;
56075;SDS011;41951;49.022;12.066;2023-04-03T13:48:20;2.15;;;1.13;;
56075;SDS011;41951;49.022;12.066;2023-04-03T13:51:13;11.45;;;1.70;;
56075;SDS011;41951;49.022;12.066;2023-04-03T13:53:41;3.75;;;1.42;;
56075;SDS011;41951;49.022;12.066;2023-04-03T13:56:27;3.63;;;1.20;;
56075;SDS011;41951;49.022;12.066;2023-04-03T13:59:00;3.85;;;1.42;;
56075;SDS011;41951;49.022;12.066;2023-04-03T14:04:29;2.70;;;1.05;;
56075;SDS011;41951;49.022;12.066;2023-04-03T14:07:01;2.03;;;1.10;;
56075;SDS011;41951;49.022;12.066;2023-04-03T14:09:28;2.63;;;1.30;;
56075;SDS011;41951;49.022;12.066;2023-04-03T14:12:04;5.28;;;1.35;;
56075;SDS011;41951;49.022;12.066;2023-04-03T14:14:33;4.88;;;1.30;;
56075;SDS011;41951;49.022;12.066;2023-04-03T14:17:01;3.28;;;1.13;;
56075;SDS011;41951;49.022;12.066;2023-04-03T14:19:43;2.35;;;1.27;;
56075;SDS011;41951;49.022;12.066;2023-04-03T14:22:17;6.82;;;1.40;;
56075;SDS011;41951;49.022;12.066;2023-04-03T14:24:43;4.32;;;1.50;;
56075;SDS011;41951;49.022;12.066;2023-04-03T14:27:20;4.47;;;1.30;;
56075;SDS011;41951;49.022;12.066;2023-04-03T14:29:48;6.88;;;1.40;;
56075;SDS011;41951;49.022;12.066;2023-04-03T14:32:15;2.40;;;1.10;;
56075;SDS011;41951;49.022;12.066;2023-04-03T14:34:42;3.65;;;1.58;;
56075;SDS011;41951;49.022;12.066;2023-04-03T14:37:13;2.75;;;1.30;;
56075;SDS011;41951;49.022;12.066;2023-04-03T14:39:42;3.20;;;1.80;;
56075;SDS011;41951;49.022;12.066;2023-04-03T14:42:13;2.67;;;1.27;;
56075;SDS011;41951;49.022;12.066;2023-04-03T14:44:41;3.17;;;1.40;;
56075;SDS011;41951;49.022;12.066;2023-04-03T14:47:11;4.80;;;1.40;;
56075;SDS011;41951;49.022;12.066;2023-04-03T14:49:38;3.17;;;1.33;;
56075;SDS011;41951;49.022;12.066;2023-04-03T14:52:04;3.15;;;1.67;;
56075;SDS011;41951;49.022;12.066;2023-04-03T14:54:30;4.25;;;1.75;;
56075;SDS011;41951;49.022;12.066;2023-04-03T14:56:56;3.33;;;1.58;;
56075;SDS011;41951;49.022;12.066;2023-04-03T14:59:23;3.13;;;1.25;;
56075;SDS011;41951;49.022;12.066;2023-04-03T15:01:50;6.72;;;2.58;;
56075;SDS011;41951;49.022;12.066;2023-04-03T15:04:19;2.80;;;1.55;;
56075;SDS011;41951;49.022;12.066;2023-04-03T15:06:45;4.50;;;1.47;;
56075;SDS011;41951;49.022;12.066;2023-04-03T15:09:20;2.78;;;1.40;;
56075;SDS011;41951;49.022;12.066;2023-04-03T15:11:48;3.35;;;1.33;;
56075;SDS011;41951;49.022;12.066;2023-04-03T15:14:15;4.55;;;1.40;;
56075;SDS011;41951;49.022;12.066;2023-04-03T15:16:41;2.25;;;1.27;;
56075;SDS011;41951;49.022;12.066;2023-04-03T15:19:06;3.35;;;1.58;;
56075;SDS011;41951;49.022;12.066;2023-04-03T15:21:32;4.15;;;1.30;;
56075;SDS011;41951;49.022;12.066;2023-04-03T15:23:57;4.28;;;1.58;;
56075;SDS011;41951;49.022;12.066;2023-04-03T15:26:23;2.83;;;1.30;;
56075;SDS011;41951;49.022;12.066;2023-04-03T15:28:49;4.82;;;2.38;;
56075;SDS011;41951;49.022;12.066;2023-04-03T15:31:15;4.47;;;2.08;;
56075;SDS011;41951;49.022;12.066;2023-04-03T15:33:41;4.93;;;1.40;;
56075;SDS011;41951;49.022;12.066;2023-04-03T15:36:06;4.03;;;1.40;;
56075;SDS011;41951;49.022;12.066;2023-04-03T15:38:32;5.57;;;2.15;;
56075;SDS011;41951;49.022;12.066;2023-04-03T15:40:58;2.35;;;1.30;;
56075;SDS011;41951;49.022;12.066;2023-04-03T15:43:24;3.00;;;1.35;;
56075;SDS011;41951;49.022;12.066;2023-04-03T15:45:50;4.80;;;1.60;;
56075;SDS011;41951;49.022;12.066;2023-04-03T15:48:16;5.30;;;1.63;;
56075;SDS011;41951;49.022;12.066;2023-04-03T15:50:42;4.47;;;1.30;;
56075;SDS011;41951;49.022;12.066;2023-04-03T15:53:07;3.42;;;1.42;;
56075;SDS011;41951;49.022;12.066;2023-04-03T15:55:34;2.50;;;1.20;;
56075;SDS011;41951;49.022;12.066;2023-04-03T15:58:02;3.15;;;1.75;;
56075;SDS011;41951;49.022;12.066;2023-04-03T16:00:28;3.40;;;1.52;;
56075;SDS011;41951;49.022;12.066;2023-04-03T16:02:58;3.83;;;1.55;;
56075;SDS011;41951;49.022;12.066;2023-04-03T16:05:28;4.30;;;1.50;;
56075;SDS011;41951;49.022;12.066;2023-04-03T16:07:54;3.58;;;1.33;;
56075;SDS011;41951;49.022;12.066;2023-04-03T16:10:20;4.20;;;1.58;;
56075;SDS011;41951;49.022;12.066;2023-04-03T16:12:46;4.88;;;1.60;;
56075;SDS011;41951;49.022;12.066;2023-04-03T16:15:11;3.35;;;1.63;;
56075;SDS011;41951;49.022;12.066;2023-04-03T16:17:37;4.80;;;1.88;;
56075;SDS011;41951;49.022;12.066;2023-04-03T16:20:05;3.22;;;1.50;;
56075;SDS011;41951;49.022;12.066;2023-04-03T16:22:32;5.45;;;1.67;;